Time;durP1;ratioP1;P1;durP2;ratioP2;P2;SDS_P1;SDS_P2;PMS_P1;PMS_P2;Temp;Humidity;BMP_temperature;BMP_pressure;BME280_temperature;BME280_humidity;BME280_pressure;Samples;Min_cycle;Max_cycle;Signal;HPM_P1;HPM_P2
2022/01/15 00:00:38;;;;;;;78.60;18.85;;;6.40;63.50;;;;;;5017872;28;20431;-57
2022/01/15 00:03:08;;;;;;;78.78;20.20;;;6.40;63.50;;;;;;5017297;28;20025;-58
2022/01/15 00:05:34;;;;;;;98.28;19.95;;;6.40;63.50;;;;;;5020410;28;20026;-56
2022/01/15 00:08:02;;;;;;;72.18;18.75;;;6.40;63.40;;;;;;5017356;28;20393;-55
2022/01/15 00:10:30;;;;;;;97.13;19.00;;;6.40;63.40;;;;;;5019282;28;20044;-58
2022/01/15 00:12:58;;;;;;;69.63;19.58;;;6.40;63.40;;;;;;5018947;28;20052;-56
2022/01/15 00:15:29;;;;;;;56.45;17.58;;;6.30;63.30;;;;;;5018103;28;20033;-54
2022/01/15 00:18:01;;;;;;;84.43;18.75;;;6.30;63.30;;;;;;5013217;28;20040;-56
2022/01/15 00:20:29;;;;;;;51.35;18.13;;;6.30;63.30;;;;;;5020340;28;20502;-57
2022/01/15 00:22:57;;;;;;;58.05;19.30;;;6.30;63.30;;;;;;5020778;28;20398;-55
2022/01/15 00:25:25;;;;;;;134.45;19.92;;;6.30;63.30;;;;;;5016787;28;20950;-58
2022/01/15 00:27:52;;;;;;;82.88;21.63;;;6.30;63.30;;;;;;5016742;28;20054;-56
2022/01/15 00:30:19;;;;;;;92.75;19.13;;;6.20;63.30;;;;;;4996615;28;20037;-58
2022/01/15 00:32:46;;;;;;;44.88;18.08;;;6.20;63.30;;;;;;5017125;28;20040;-58
2022/01/15 00:35:13;;;;;;;59.80;17.75;;;6.20;63.30;;;;;;5019526;28;20034;-58
2022/01/15 00:37:41;;;;;;;56.35;17.67;;;6.20;63.40;;;;;;5015188;28;20049;-58
2022/01/15 00:40:10;;;;;;;57.60;17.67;;;6.20;63.30;;;;;;5017600;28;20474;-58
2022/01/15 00:42:37;;;;;;;98.47;18.00;;;6.20;63.20;;;;;;5020200;28;20394;-54
2022/01/15 00:45:08;;;;;;;101.30;19.45;;;6.10;63.10;;;;;;5018360;28;20058;-56
2022/01/15 00:47:34;;;;;;;59.55;17.55;;;6.10;63.20;;;;;;5015505;28;20052;-57
2022/01/15 00:50:03;;;;;;;44.38;17.58;;;6.10;63.30;;;;;;5019587;28;20053;-58
2022/01/15 00:52:29;;;;;;;47.05;16.88;;;6.00;63.30;;;;;;5019511;28;20033;-56
2022/01/15 00:54:55;;;;;;;39.55;15.20;;;6.00;63.40;;;;;;4998545;28;20379;-58
2022/01/15 00:57:22;;;;;;;35.80;16.75;;;6.00;63.50;;;;;;5015182;28;20025;-56
2022/01/15 00:59:48;;;;;;;38.15;15.50;;;6.00;63.60;;;;;;5019004;28;20052;-56
2022/01/15 01:02:15;;;;;;;38.67;16.17;;;5.90;63.50;;;;;;5018086;28;20513;-56
2022/01/15 01:04:41;;;;;;;46.85;15.43;;;6.00;63.60;;;;;;5018697;28;20453;-55
2022/01/15 01:07:08;;;;;;;42.53;16.33;;;5.90;63.50;;;;;;5018927;28;20042;-57
2022/01/15 01:20:05;;;;;;;48.90;16.58;;;5.90;63.60;;;;;;5019395;28;20401;-55
2022/01/15 01:23:20;;;;;;;51.15;16.60;;;5.90;63.70;;;;;;5024227;28;20473;-56
2022/01/15 01:25:50;;;;;;;42.47;16.90;;;5.90;63.70;;;;;;5022069;28;20385;-57
2022/01/15 01:28:29;;;;;;;50.45;15.80;;;5.90;63.80;;;;;;5001282;28;20489;-57
2022/01/15 01:31:35;;;;;;;60.05;15.95;;;5.90;63.90;;;;;;5021723;28;20038;-58
2022/01/15 01:33:53;;;;;;;36.65;14.98;;;5.90;63.90;;;;;;5019057;28;20508;-54
2022/01/15 01:38:58;;;;;;;35.35;15.02;;;5.90;63.80;;;;;;5022353;28;20036;-56
2022/01/15 01:41:24;;;;;;;41.28;14.93;;;5.90;63.80;;;;;;5023597;28;20393;-58
2022/01/15 01:44:00;;;;;;;34.45;13.32;;;5.90;63.80;;;;;;5023115;28;20025;-57
2022/01/15 01:48:54;;;;;;;36.30;14.57;;;5.80;63.70;;;;;;5019479;28;20044;-54
2022/01/15 01:51:24;;;;;;;58.05;15.68;;;5.80;63.70;;;;;;5022572;28;20037;-58
2022/01/15 01:53:51;;;;;;;37.28;14.75;;;5.80;63.80;;;;;;5022371;28;20040;-57
2022/01/15 01:56:19;;;;;;;38.53;14.40;;;5.80;63.80;;;;;;5019814;28;20466;-58
2022/01/15 01:58:46;;;;;;;35.30;14.45;;;5.80;63.80;;;;;;5017954;28;20481;-55
2022/01/15 02:01:12;;;;;;;34.97;14.50;;;5.80;63.80;;;;;;5022153;28;20029;-56
2022/01/15 02:03:38;;;;;;;31.88;15.07;;;5.80;63.90;;;;;;5021256;28;20546;-58
2022/01/15 02:06:05;;;;;;;35.10;14.57;;;5.80;63.90;;;;;;5023688;28;20033;-56
2022/01/15 02:08:35;;;;;;;38.00;15.00;;;5.80;63.90;;;;;;5015832;28;20494;-56
2022/01/15 02:11:04;;;;;;;42.03;16.33;;;5.80;63.80;;;;;;5022949;28;20032;-55
2022/01/15 02:13:32;;;;;;;35.30;15.82;;;5.80;63.90;;;;;;5022659;28;20029;-52
2022/01/15 02:16:00;;;;;;;40.60;14.45;;;5.80;63.90;;;;;;5017718;28;20038;-57
2022/01/15 02:18:27;;;;;;;28.95;12.60;;;5.80;63.90;;;;;;5018945;28;20052;-56
2022/01/15 02:23:41;;;;;;;38.47;13.30;;;5.80;63.70;;;;;;5022608;28;20812;-55
2022/01/15 02:26:16;;;;;;;41.55;14.00;;;5.80;63.70;;;;;;5020466;28;20089;-56
2022/01/15 02:28:46;;;;;;;31.52;13.23;;;5.80;63.50;;;;;;5015386;28;20045;-55
2022/01/15 02:31:15;;;;;;;36.33;13.60;;;5.80;63.50;;;;;;4975417;28;20045;-55
2022/01/15 02:33:44;;;;;;;32.13;13.45;;;5.80;63.50;;;;;;5022046;28;20398;-56
2022/01/15 02:36:14;;;;;;;25.75;12.43;;;5.80;63.60;;;;;;5019949;28;20029;-55
2022/01/15 02:38:41;;;;;;;32.70;12.05;;;5.80;63.50;;;;;;5011529;28;20021;-55
2022/01/15 02:41:08;;;;;;;22.15;11.32;;;5.80;63.40;;;;;;5022302;28;20033;-55
2022/01/15 02:43:35;;;;;;;25.38;11.20;;;5.70;63.20;;;;;;4993142;28;20052;-56
2022/01/15 02:48:52;;;;;;;26.98;11.68;;;5.70;63.00;;;;;;5016859;28;20580;-57
2022/01/15 02:51:20;;;;;;;21.67;10.73;;;5.70;63.00;;;;;;5021832;28;20044;-56
2022/01/15 02:53:50;;;;;;;30.08;10.52;;;5.70;63.00;;;;;;5021470;28;20471;-53
2022/01/15 02:56:16;;;;;;;26.33;11.82;;;5.60;62.90;;;;;;5017804;28;20739;-57
2022/01/15 02:58:42;;;;;;;32.63;11.13;;;5.60;62.90;;;;;;5016681;28;20495;-57
2022/01/15 03:01:08;;;;;;;24.85;11.05;;;5.60;62.90;;;;;;5019990;28;20032;-54
2022/01/15 03:03:34;;;;;;;24.52;11.63;;;5.60;62.90;;;;;;5020633;28;20390;-56
2022/01/15 03:06:02;;;;;;;26.83;12.80;;;5.50;62.90;;;;;;5020466;28;20040;-57
2022/01/15 03:08:32;;;;;;;27.10;11.95;;;5.50;62.90;;;;;;5019308;28;20378;-58
2022/01/15 03:10:58;;;;;;;27.75;12.32;;;5.50;63.00;;;;;;5020716;28;20501;-57
2022/01/15 03:13:24;;;;;;;29.30;13.30;;;5.50;63.00;;;;;;5021551;28;20029;-55
2022/01/15 03:15:50;;;;;;;34.22;13.57;;;5.50;63.10;;;;;;5018087;28;20036;-52
2022/01/15 03:18:16;;;;;;;26.92;12.65;;;5.50;63.20;;;;;;5014671;28;20033;-55
2022/01/15 03:20:42;;;;;;;29.70;13.23;;;5.40;63.20;;;;;;5020417;28;20033;-53
2022/01/15 03:23:09;;;;;;;30.20;12.60;;;5.40;63.20;;;;;;5019904;28;20034;-53
2022/01/15 03:25:35;;;;;;;26.15;12.27;;;5.40;63.20;;;;;;5017830;28;20056;-56
2022/01/15 03:28:01;;;;;;;27.98;12.82;;;5.40;63.20;;;;;;5017282;28;20371;-55
2022/01/15 03:30:27;;;;;;;24.35;12.13;;;5.40;63.10;;;;;;5019277;28;20017;-56
2022/01/15 03:32:53;;;;;;;22.17;11.48;;;5.40;63.10;;;;;;5000571;28;20060;-58
2022/01/15 03:35:20;;;;;;;21.08;11.63;;;5.40;63.10;;;;;;5013788;28;20049;-54
2022/01/15 03:37:46;;;;;;;25.15;11.52;;;5.40;63.10;;;;;;5014642;28;20028;-56
2022/01/15 03:40:17;;;;;;;23.02;12.18;;;5.40;63.20;;;;;;5018141;28;20033;-56
2022/01/15 03:42:44;;;;;;;25.35;12.82;;;5.40;63.80;;;;;;5017088;28;20033;-54
2022/01/15 03:45:12;;;;;;;22.10;11.30;;;5.30;63.10;;;;;;5020004;28;20394;-57
2022/01/15 03:47:39;;;;;;;23.00;12.10;;;5.30;63.30;;;;;;5017692;28;20398;-56
2022/01/15 03:50:06;;;;;;;24.00;12.43;;;5.30;63.30;;;;;;5020941;28;20040;-56
2022/01/15 03:52:32;;;;;;;25.40;12.43;;;5.30;63.30;;;;;;5019292;28;20025;-54
2022/01/15 03:54:58;;;;;;;23.50;11.35;;;5.30;63.30;;;;;;5017683;28;20041;-55
2022/01/15 03:57:25;;;;;;;22.35;11.20;;;5.30;63.30;;;;;;5015596;28;20025;-56
2022/01/15 03:59:51;;;;;;;20.98;11.25;;;5.30;63.30;;;;;;5016134;28;20318;-56
2022/01/15 04:02:17;;;;;;;23.80;11.55;;;5.30;63.40;;;;;;5018125;28;20022;-56
2022/01/15 04:04:44;;;;;;;30.17;11.50;;;5.30;63.50;;;;;;5018013;28;20447;-57
2022/01/15 04:07:10;;;;;;;23.52;11.02;;;5.20;63.40;;;;;;5018757;28;20040;-57
2022/01/15 04:09:36;;;;;;;21.30;11.40;;;5.30;63.50;;;;;;5020178;28;20037;-55
2022/01/15 04:12:03;;;;;;;26.88;10.90;;;5.30;63.50;;;;;;5020681;28;20029;-55
2022/01/15 04:14:29;;;;;;;27.05;12.15;;;5.30;63.50;;;;;;5018271;28;20029;-58
2022/01/15 04:16:55;;;;;;;21.73;11.48;;;5.30;63.60;;;;;;4998566;28;20037;-56
2022/01/15 04:19:21;;;;;;;23.60;12.05;;;5.20;63.60;;;;;;5020820;28;20462;-56
2022/01/15 04:21:48;;;;;;;24.65;11.95;;;5.30;63.70;;;;;;5019827;28;20029;-56
2022/01/15 04:24:14;;;;;;;24.30;11.75;;;5.30;63.70;;;;;;5018375;28;20037;-58
2022/01/15 04:26:40;;;;;;;24.98;11.48;;;5.30;63.80;;;;;;5019208;28;20056;-57
2022/01/15 04:29:07;;;;;;;21.98;10.80;;;5.30;63.90;;;;;;5020496;28;20470;-57
2022/01/15 04:31:51;;;;;;;21.48;10.98;;;5.30;63.80;;;;;;5017350;28;20533;-58
2022/01/15 04:34:25;;;;;;;18.27;9.90;;;5.30;63.80;;;;;;5019767;28;20050;-56
2022/01/15 04:36:53;;;;;;;43.08;19.40;;;5.30;63.80;;;;;;5019548;28;20042;-56
2022/01/15 04:39:19;;;;;;;25.55;13.75;;;5.30;63.80;;;;;;5019338;28;20535;-56
2022/01/15 04:41:46;;;;;;;21.90;10.60;;;5.30;63.90;;;;;;5018513;28;20025;-56
2022/01/15 04:44:12;;;;;;;16.55;9.43;;;5.30;63.90;;;;;;5000818;28;20057;-58
2022/01/15 04:46:39;;;;;;;18.00;9.73;;;5.30;63.90;;;;;;5012385;28;20390;-57
2022/01/15 04:49:06;;;;;;;16.17;9.43;;;5.30;63.90;;;;;;4988587;28;20554;-56
2022/01/15 04:51:33;;;;;;;16.08;8.85;;;5.20;63.90;;;;;;5015985;28;20041;-59
2022/01/15 04:53:59;;;;;;;18.25;8.57;;;5.30;63.90;;;;;;5025324;28;20029;-56
2022/01/15 04:56:26;;;;;;;17.25;9.35;;;5.20;63.80;;;;;;5026033;28;20496;-58
2022/01/15 04:58:52;;;;;;;18.27;9.40;;;5.20;63.80;;;;;;5025612;28;20021;-58
2022/01/15 05:01:18;;;;;;;16.65;8.35;;;5.20;63.80;;;;;;5023112;28;20033;-55
2022/01/15 05:03:44;;;;;;;16.48;8.90;;;5.20;63.90;;;;;;5020018;28;20040;-58
2022/01/15 05:06:10;;;;;;;15.70;8.50;;;5.20;64.00;;;;;;5023481;28;20026;-57
2022/01/15 05:08:37;;;;;;;16.92;8.50;;;5.20;64.00;;;;;;5024786;28;20044;-55
2022/01/15 05:11:13;;;;;;;15.80;8.30;;;5.20;64.10;;;;;;5024888;28;20036;-58
2022/01/15 05:13:39;;;;;;;54.63;20.25;;;5.20;64.10;;;;;;5024040;28;20486;-55
2022/01/15 05:16:06;;;;;;;21.08;10.75;;;5.20;64.10;;;;;;5021135;28;20033;-57
2022/01/15 05:18:33;;;;;;;16.02;8.43;;;5.30;64.30;;;;;;5018746;28;20615;-56
2022/01/15 05:20:59;;;;;;;20.75;8.90;;;5.20;64.20;;;;;;5026027;28;20025;-58
2022/01/15 05:23:25;;;;;;;17.63;9.30;;;5.20;64.20;;;;;;5021164;28;20144;-58
2022/01/15 05:25:52;;;;;;;17.67;9.15;;;5.20;64.20;;;;;;5041665;28;20029;-58
2022/01/15 05:28:18;;;;;;;16.58;9.50;;;5.20;64.30;;;;;;5021518;28;20386;-58
2022/01/15 05:30:44;;;;;;;17.55;9.20;;;5.30;64.40;;;;;;5023806;28;20370;-58
2022/01/15 05:33:10;;;;;;;16.98;8.35;;;5.30;64.40;;;;;;5021216;28;20036;-59
2022/01/15 05:35:36;;;;;;;15.35;8.68;;;5.20;64.40;;;;;;5023452;28;20017;-56
2022/01/15 05:38:02;;;;;;;15.77;8.68;;;5.30;64.50;;;;;;5038832;28;20556;-56
2022/01/15 05:40:28;;;;;;;18.40;9.55;;;5.30;64.50;;;;;;5026601;28;20037;-56
2022/01/15 05:42:54;;;;;;;16.58;8.13;;;5.30;64.50;;;;;;5025254;28;20041;-58
2022/01/15 05:45:21;;;;;;;15.68;9.10;;;5.30;64.60;;;;;;5021501;28;20352;-55
2022/01/15 05:47:48;;;;;;;18.50;9.05;;;5.30;64.70;;;;;;5022786;28;20386;-58
2022/01/15 05:50:14;;;;;;;19.30;9.38;;;5.30;64.70;;;;;;5026667;28;20037;-58
2022/01/15 05:52:40;;;;;;;14.65;8.57;;;5.30;64.80;;;;;;5024633;28;20404;-58
2022/01/15 05:55:07;;;;;;;18.45;8.35;;;5.30;64.70;;;;;;5024879;28;20033;-57
2022/01/15 05:57:33;;;;;;;33.03;13.25;;;5.30;64.70;;;;;;5009552;28;20453;-56
2022/01/15 06:00:00;;;;;;;52.55;20.02;;;5.30;64.70;;;;;;5022970;28;20033;-58
2022/01/15 06:02:26;;;;;;;21.23;9.68;;;5.30;64.70;;;;;;5020575;28;20021;-55
2022/01/15 06:04:52;;;;;;;14.93;7.40;;;5.30;64.80;;;;;;5020654;28;20029;-56
2022/01/15 06:07:18;;;;;;;15.30;7.82;;;5.40;64.90;;;;;;5019261;28;20030;-55
2022/01/15 06:09:45;;;;;;;17.13;8.07;;;5.40;64.90;;;;;;5022273;28;20033;-57
2022/01/15 06:12:11;;;;;;;14.65;7.25;;;5.40;64.90;;;;;;5021557;28;20385;-56
2022/01/15 06:14:37;;;;;;;18.92;7.15;;;5.40;64.90;;;;;;5023018;28;20025;-58
2022/01/15 06:17:04;;;;;;;15.65;7.78;;;5.40;64.90;;;;;;5017916;28;20026;-56
2022/01/15 06:19:30;;;;;;;13.05;7.30;;;5.40;65.00;;;;;;5002859;28;20550;-58
2022/01/15 06:21:56;;;;;;;11.70;6.38;;;5.40;64.90;;;;;;5023322;28;20030;-55
2022/01/15 06:24:23;;;;;;;13.10;7.45;;;5.40;64.90;;;;;;5021819;28;20041;-56
2022/01/15 06:26:49;;;;;;;12.15;6.72;;;5.50;64.90;;;;;;5018667;28;20395;-58
2022/01/15 06:29:15;;;;;;;26.23;11.68;;;5.40;64.80;;;;;;5018792;28;20466;-58
2022/01/15 06:31:41;;;;;;;14.48;7.35;;;5.40;64.80;;;;;;5003525;28;20466;-57
2022/01/15 06:34:07;;;;;;;15.07;7.55;;;5.50;64.90;;;;;;5022996;28;20029;-56
2022/01/15 06:36:34;;;;;;;14.23;6.97;;;5.40;64.80;;;;;;5021293;28;20033;-55
2022/01/15 06:39:00;;;;;;;11.13;5.75;;;5.40;64.90;;;;;;5020816;28;20447;-54
2022/01/15 06:41:26;;;;;;;13.20;6.40;;;5.50;65.00;;;;;;5020300;28;20486;-54
2022/01/15 06:43:52;;;;;;;11.25;6.20;;;5.50;65.10;;;;;;5020652;28;20021;-57
2022/01/15 06:46:18;;;;;;;11.52;6.75;;;5.50;65.00;;;;;;5016524;28;20049;-57
2022/01/15 06:48:44;;;;;;;14.02;6.68;;;5.50;65.00;;;;;;5020913;28;20041;-57
2022/01/15 06:51:10;;;;;;;13.65;6.90;;;5.50;65.00;;;;;;5020438;28;20057;-58
2022/01/15 06:53:37;;;;;;;12.70;7.13;;;5.50;65.00;;;;;;5021353;28;20026;-58
2022/01/15 06:56:03;;;;;;;10.35;6.05;;;5.50;65.10;;;;;;5020454;28;20044;-58
2022/01/15 06:58:29;;;;;;;14.52;6.57;;;5.50;65.00;;;;;;5016167;28;20022;-56
2022/01/15 07:00:55;;;;;;;10.15;5.97;;;5.50;65.00;;;;;;5017707;28;20466;-56
2022/01/15 07:03:22;;;;;;;12.75;6.28;;;5.60;65.80;;;;;;5014714;28;20025;-56
2022/01/15 07:05:48;;;;;;;10.57;6.15;;;5.50;64.90;;;;;;5019505;28;20076;-57
2022/01/15 07:08:14;;;;;;;11.20;6.32;;;5.50;65.00;;;;;;5017490;28;20029;-54
2022/01/15 07:10:41;;;;;;;11.75;6.03;;;5.60;65.20;;;;;;5021233;28;20540;-56
2022/01/15 07:13:07;;;;;;;11.05;6.40;;;5.50;65.00;;;;;;5018549;28;20100;-59
2022/01/15 07:15:34;;;;;;;12.07;6.78;;;5.50;64.90;;;;;;5018718;28;20045;-55
2022/01/15 07:18:00;;;;;;;12.90;7.07;;;5.50;64.90;;;;;;5016666;28;20607;-57
2022/01/15 07:20:27;;;;;;;11.93;6.57;;;5.60;64.90;;;;;;5018977;28;20351;-57
2022/01/15 07:22:55;;;;;;;14.05;6.80;;;5.50;64.90;;;;;;5020279;28;21027;-55
2022/01/15 07:25:21;;;;;;;12.43;7.20;;;5.50;65.00;;;;;;5020387;28;20040;-54
2022/01/15 07:27:48;;;;;;;12.80;7.05;;;5.60;65.00;;;;;;5018018;28;20030;-58
2022/01/15 07:30:15;;;;;;;14.35;7.85;;;5.50;64.90;;;;;;5016383;28;20394;-56
2022/01/15 07:32:42;;;;;;;14.10;7.22;;;5.50;64.90;;;;;;4988930;28;20389;-56
2022/01/15 07:35:09;;;;;;;15.60;8.45;;;5.60;65.00;;;;;;5019903;28;20049;-52
2022/01/15 07:37:36;;;;;;;13.63;7.63;;;5.60;65.00;;;;;;5020358;28;20025;-58
2022/01/15 07:40:07;;;;;;;14.20;7.55;;;5.60;65.00;;;;;;5017094;28;20025;-56
2022/01/15 07:42:37;;;;;;;13.85;8.27;;;5.60;65.10;;;;;;5018063;28;20382;-56
2022/01/15 07:45:05;;;;;;;15.15;8.27;;;5.60;65.10;;;;;;5017121;28;20048;-58
2022/01/15 07:47:31;;;;;;;13.20;7.70;;;5.60;65.00;;;;;;5016004;28;20950;-55
2022/01/15 07:49:58;;;;;;;14.18;7.63;;;5.60;65.00;;;;;;5019993;28;20038;-58
2022/01/15 07:52:25;;;;;;;15.80;8.40;;;5.60;64.90;;;;;;5011714;28;20033;-55
2022/01/15 07:54:51;;;;;;;12.55;7.78;;;5.60;64.90;;;;;;5013102;28;20037;-57
2022/01/15 07:57:17;;;;;;;16.23;7.63;;;5.60;64.90;;;;;;5011936;28;20022;-56
2022/01/15 07:59:43;;;;;;;14.35;7.95;;;5.60;65.00;;;;;;5010766;28;20132;-57
2022/01/15 08:02:09;;;;;;;16.52;8.52;;;5.60;65.00;;;;;;5004751;28;20041;-57
2022/01/15 08:04:36;;;;;;;17.10;9.10;;;5.60;65.10;;;;;;5009617;28;20505;-54
2022/01/15 08:07:02;;;;;;;16.05;8.70;;;5.60;65.00;;;;;;5009112;28;20040;-57
2022/01/15 08:09:28;;;;;;;14.63;7.22;;;5.60;65.00;;;;;;4999961;28;20482;-57
2022/01/15 08:11:54;;;;;;;15.70;8.40;;;5.60;65.00;;;;;;5007325;28;20054;-57
2022/01/15 08:14:20;;;;;;;14.45;8.00;;;5.60;64.90;;;;;;5008545;28;20044;-54
2022/01/15 08:16:47;;;;;;;31.60;13.40;;;5.60;64.80;;;;;;5009233;28;20482;-59
2022/01/15 08:19:13;;;;;;;15.35;8.45;;;5.60;64.80;;;;;;5007457;28;20374;-59
2022/01/15 08:21:39;;;;;;;17.55;9.15;;;5.70;64.90;;;;;;5009505;28;20032;-59
2022/01/15 08:24:05;;;;;;;16.58;8.77;;;5.70;64.90;;;;;;5000582;28;20042;-59
2022/01/15 08:26:31;;;;;;;15.88;9.02;;;5.60;64.80;;;;;;5008775;28;20037;-59
2022/01/15 08:28:58;;;;;;;16.88;9.32;;;5.70;65.00;;;;;;5008471;28;20728;-59
2022/01/15 08:31:24;;;;;;;17.48;9.13;;;5.70;65.00;;;;;;5007718;28;20028;-59
2022/01/15 08:33:50;;;;;;;16.08;8.45;;;5.60;64.90;;;;;;5002604;28;21027;-59
2022/01/15 08:36:17;;;;;;;16.50;8.70;;;5.70;64.90;;;;;;5001414;28;20034;-59
2022/01/15 08:38:45;;;;;;;16.20;8.77;;;5.70;64.80;;;;;;5000649;28;20040;-59
2022/01/15 08:41:13;;;;;;;17.80;8.20;;;5.70;64.80;;;;;;5012910;28;20036;-59
2022/01/15 08:43:39;;;;;;;15.93;8.38;;;5.70;64.80;;;;;;5010787;28;20620;-59
2022/01/15 08:46:06;;;;;;;16.20;8.00;;;5.70;64.60;;;;;;5000363;28;20044;-59
2022/01/15 08:48:32;;;;;;;17.60;8.38;;;5.70;64.70;;;;;;5007203;28;20489;-58
2022/01/15 08:50:58;;;;;;;14.00;7.68;;;5.70;64.60;;;;;;5005986;28;20046;-60
2022/01/15 08:53:25;;;;;;;13.65;7.80;;;5.70;64.70;;;;;;5001080;28;20589;-59
2022/01/15 08:55:53;;;;;;;13.88;7.57;;;5.70;64.70;;;;;;5001288;28;20026;-59
2022/01/15 08:58:20;;;;;;;17.50;8.38;;;5.70;64.80;;;;;;4984191;28;20034;-60
2022/01/15 09:00:47;;;;;;;17.10;8.65;;;5.70;64.80;;;;;;4992911;28;20046;-60
2022/01/15 09:03:14;;;;;;;13.98;8.40;;;5.70;64.90;;;;;;4984788;28;20038;-59
2022/01/15 09:05:40;;;;;;;18.30;9.52;;;5.70;64.80;;;;;;4999378;28;20037;-59
2022/01/15 09:08:08;;;;;;;17.48;9.95;;;5.70;64.80;;;;;;4998428;28;20033;-59
2022/01/15 09:10:41;;;;;;;20.02;10.95;;;5.70;64.90;;;;;;4999799;28;20033;-57
2022/01/15 09:13:10;;;;;;;17.33;10.00;;;5.80;64.90;;;;;;5001339;28;20025;-60
2022/01/15 09:15:37;;;;;;;18.15;10.48;;;5.80;64.90;;;;;;4997395;28;20460;-56
2022/01/15 09:18:04;;;;;;;19.63;10.90;;;5.80;64.90;;;;;;5008124;28;20037;-59
2022/01/15 09:20:30;;;;;;;21.73;10.80;;;5.80;64.90;;;;;;5011009;28;20038;-57
2022/01/15 09:22:56;;;;;;;20.38;10.95;;;5.80;64.90;;;;;;5006261;28;21202;-59
2022/01/15 09:25:23;;;;;;;18.20;10.02;;;5.90;65.00;;;;;;5011470;28;20029;-59
2022/01/15 09:30:34;;;;;;;18.92;10.00;;;5.90;64.90;;;;;;5018302;28;20631;-56
2022/01/15 09:33:00;;;;;;;16.55;10.23;;;5.90;64.90;;;;;;5006724;28;20045;-59
2022/01/15 09:35:28;;;;;;;22.35;10.55;;;6.00;64.90;;;;;;5007200;28;20026;-59
2022/01/15 09:37:56;;;;;;;20.38;10.13;;;6.00;64.80;;;;;;5003882;28;20087;-59
2022/01/15 09:40:25;;;;;;;14.27;8.52;;;5.90;64.70;;;;;;5012203;28;20037;-60
2022/01/15 09:42:51;;;;;;;18.95;10.13;;;5.90;64.70;;;;;;5015083;28;20486;-59
2022/01/15 09:45:19;;;;;;;16.70;8.75;;;6.00;64.70;;;;;;5010666;28;20567;-60
2022/01/15 09:47:47;;;;;;;15.57;8.90;;;6.00;64.60;;;;;;5011000;28;20053;-57
2022/01/15 09:50:16;;;;;;;14.05;8.48;;;6.00;64.50;;;;;;5004880;28;20755;-60
2022/01/15 09:52:42;;;;;;;14.82;8.55;;;6.00;64.50;;;;;;5013807;28;20407;-60
2022/01/15 09:55:11;;;;;;;15.35;8.88;;;6.00;64.40;;;;;;5023007;28;20520;-58
2022/01/15 09:57:39;;;;;;;14.60;8.82;;;6.00;64.30;;;;;;5018685;28;20025;-58
2022/01/15 10:00:09;;;;;;;17.13;8.77;;;6.00;64.20;;;;;;5019393;28;20482;-59
2022/01/15 10:02:39;;;;;;;13.85;8.18;;;6.10;64.30;;;;;;5005599;28;20033;-59
2022/01/15 10:05:06;;;;;;;16.08;8.55;;;6.00;64.20;;;;;;5016669;28;20046;-60
2022/01/15 10:07:32;;;;;;;14.90;8.57;;;6.00;64.30;;;;;;5018058;28;20054;-59
2022/01/15 10:10:13;;;;;;;19.10;9.05;;;6.00;64.40;;;;;;5012987;28;20068;-59
2022/01/15 10:12:42;;;;;;;14.57;8.35;;;6.00;64.30;;;;;;5014709;28;20478;-58
2022/01/15 10:15:09;;;;;;;17.73;9.38;;;6.10;64.40;;;;;;5017244;28;20407;-59
2022/01/15 10:17:38;;;;;;;15.25;8.95;;;6.10;64.40;;;;;;5014372;28;20032;-59
2022/01/15 10:20:14;;;;;;;19.35;10.07;;;6.10;64.40;;;;;;5017525;28;20041;-56
2022/01/15 10:22:43;;;;;;;16.48;9.40;;;6.10;64.40;;;;;;5017394;28;20032;-59
2022/01/15 10:25:14;;;;;;;19.65;9.00;;;6.20;64.50;;;;;;4999767;28;20038;-59
2022/01/15 10:27:50;;;;;;;19.13;9.88;;;6.20;64.40;;;;;;5011037;28;20049;-57
2022/01/15 10:30:21;;;;;;;17.38;9.80;;;6.20;64.40;;;;;;5012404;28;20486;-59
2022/01/15 10:33:01;;;;;;;17.08;9.80;;;6.20;64.40;;;;;;5016822;28;20500;-58
2022/01/15 10:35:46;;;;;;;15.65;9.35;;;6.20;64.40;;;;;;5016200;28;20049;-58
2022/01/15 10:38:17;;;;;;;16.40;9.65;;;6.20;64.40;;;;;;5017656;28;20026;-57
2022/01/15 10:40:46;;;;;;;14.63;8.65;;;6.30;64.40;;;;;;5014523;28;20386;-59
2022/01/15 10:43:17;;;;;;;14.05;8.95;;;6.30;64.30;;;;;;4988913;28;20404;-59
2022/01/15 10:45:50;;;;;;;14.93;8.77;;;6.30;64.30;;;;;;5019159;28;20020;-59
2022/01/15 10:48:20;;;;;;;13.77;8.40;;;6.30;64.30;;;;;;5013117;28;20381;-59
2022/01/15 10:50:58;;;;;;;17.25;9.45;;;6.30;65.00;;;;;;5018599;28;20050;-57
2022/01/15 10:53:37;;;;;;;15.23;9.25;;;6.40;64.30;;;;;;5019691;28;20026;-56
2022/01/15 10:56:06;;;;;;;15.90;9.40;;;6.40;64.30;;;;;;5018876;28;20037;-57
2022/01/15 10:58:33;;;;;;;17.35;9.10;;;6.40;64.30;;;;;;5015159;28;20044;-57
2022/01/15 11:00:59;;;;;;;16.70;9.35;;;6.40;64.30;;;;;;5019847;28;20540;-59
2022/01/15 11:03:37;;;;;;;17.23;9.82;;;6.40;64.20;;;;;;5002692;28;20037;-55
2022/01/15 11:06:05;;;;;;;16.50;9.57;;;6.40;64.20;;;;;;5016449;28;20029;-56
2022/01/15 11:08:35;;;;;;;17.88;9.25;;;6.50;64.20;;;;;;5017699;28;20414;-57
2022/01/15 11:11:04;;;;;;;15.27;8.57;;;6.50;64.10;;;;;;5017618;28;20045;-57
2022/01/15 11:13:37;;;;;;;13.73;8.48;;;6.50;63.90;;;;;;5019762;28;20034;-58
2022/01/15 11:16:10;;;;;;;17.55;10.18;;;6.60;63.90;;;;;;5021092;28;20036;-59
2022/01/15 11:18:39;;;;;;;14.88;8.82;;;6.60;63.80;;;;;;5019486;28;20480;-59
2022/01/15 11:21:13;;;;;;;17.88;8.68;;;6.60;63.70;;;;;;5018426;28;20048;-57
2022/01/15 11:23:40;;;;;;;15.40;9.48;;;6.60;63.70;;;;;;5014038;28;20025;-59
2022/01/15 11:26:09;;;;;;;14.43;8.98;;;6.60;63.80;;;;;;5009574;28;20029;-59
2022/01/15 11:28:36;;;;;;;17.60;9.88;;;6.60;63.80;;;;;;5013081;28;20606;-57
2022/01/15 11:31:07;;;;;;;13.27;8.35;;;6.60;63.80;;;;;;5014790;28;20052;-59
2022/01/15 11:33:36;;;;;;;17.67;8.98;;;6.70;63.90;;;;;;5017347;28;20044;-59
2022/01/15 11:36:04;;;;;;;15.23;9.48;;;6.60;63.80;;;;;;5019686;28;20030;-56
2022/01/15 11:38:50;;;;;;;13.63;8.50;;;6.70;63.90;;;;;;5016860;28;20026;-57
2022/01/15 11:41:22;;;;;;;14.77;8.35;;;6.70;63.70;;;;;;5016120;28;20485;-59
2022/01/15 11:43:50;;;;;;;15.98;8.63;;;6.70;63.90;;;;;;5016490;28;20064;-57
2022/01/15 11:46:30;;;;;;;13.13;7.90;;;6.80;63.90;;;;;;5013448;28;20472;-58
2022/01/15 11:49:22;;;;;;;11.45;6.80;;;6.80;63.70;;;;;;5017798;28;20042;-59
2022/01/15 11:51:48;;;;;;;11.43;6.63;;;6.80;63.60;;;;;;5014345;28;20041;-59
2022/01/15 11:54:14;;;;;;;12.10;6.55;;;6.90;63.70;;;;;;5017431;28;20033;-59
2022/01/15 11:56:42;;;;;;;13.63;7.03;;;6.90;63.50;;;;;;5016108;28;20025;-59
2022/01/15 11:59:23;;;;;;;10.77;6.22;;;6.80;63.30;;;;;;5013346;28;20601;-59
2022/01/15 12:02:01;;;;;;;11.50;6.88;;;6.90;63.30;;;;;;5016278;28;20060;-57
2022/01/15 12:04:32;;;;;;;13.25;6.95;;;6.90;63.40;;;;;;5017907;28;20038;-59
2022/01/15 12:07:05;;;;;;;11.80;7.00;;;6.90;63.20;;;;;;5002303;28;20037;-58
2022/01/15 12:09:41;;;;;;;9.98;6.28;;;6.90;63.20;;;;;;5018935;28;20038;-58
2022/01/15 12:12:31;;;;;;;11.05;6.70;;;7.00;63.30;;;;;;5010261;28;20041;-59
2022/01/15 12:15:01;;;;;;;11.88;7.10;;;6.90;63.00;;;;;;5014720;28;20061;-58
2022/01/15 12:17:31;;;;;;;10.63;6.53;;;7.00;63.20;;;;;;5009637;28;20045;-59
2022/01/15 12:20:25;;;;;;;13.25;6.90;;;7.00;63.10;;;;;;5016064;28;20404;-57
2022/01/15 12:22:52;;;;;;;;;;;7.00;63.00;;;;;;5004062;28;20037;-58
2022/01/15 12:25:18;;;;;;;14.77;6.95;;;7.00;63.10;;;;;;5016301;28;19909;-57
2022/01/15 12:27:58;;;;;;;14.02;7.05;;;7.00;62.80;;;;;;5015615;28;20029;-59
2022/01/15 12:30:27;;;;;;;13.40;7.25;;;7.10;62.80;;;;;;5015310;28;20037;-56
2022/01/15 12:32:55;;;;;;;11.75;6.95;;;7.10;62.80;;;;;;5015047;28;20093;-57
2022/01/15 12:35:26;;;;;;;12.02;6.57;;;7.10;62.80;;;;;;5016413;28;20585;-56
2022/01/15 12:37:55;;;;;;;11.65;6.93;;;7.10;62.70;;;;;;5016021;28;20036;-58
2022/01/15 12:40:31;;;;;;;12.60;6.53;;;7.10;62.70;;;;;;5017395;28;20036;-59
2022/01/15 12:43:00;;;;;;;9.98;6.13;;;7.10;62.70;;;;;;5014586;28;20034;-58
2022/01/15 12:45:27;;;;;;;11.65;6.80;;;7.10;62.80;;;;;;5011473;28;20044;-57
2022/01/15 12:47:54;;;;;;;14.32;7.75;;;7.10;62.70;;;;;;5012746;28;20034;-59
2022/01/15 12:50:20;;;;;;;13.50;8.00;;;7.10;62.70;;;;;;5018430;28;20410;-59
2022/01/15 12:52:57;;;;;;;11.57;6.90;;;7.10;62.60;;;;;;5017598;28;20543;-59
2022/01/15 12:55:35;;;;;;;12.73;7.43;;;7.10;62.60;;;;;;5017881;28;21119;-59
2022/01/15 12:58:03;;;;;;;12.90;7.95;;;7.10;62.50;;;;;;5013334;28;20048;-59
2022/01/15 13:00:32;;;;;;;15.18;9.18;;;7.20;62.60;;;;;;5017997;28;20478;-57
2022/01/15 13:03:00;;;;;;;16.20;9.02;;;7.10;62.50;;;;;;5015807;28;20033;-59
2022/01/15 13:05:30;;;;;;;14.52;7.95;;;7.20;62.50;;;;;;5018506;28;20501;-57
2022/01/15 13:08:00;;;;;;;15.40;9.98;;;7.20;62.50;;;;;;5017865;28;20026;-59
2022/01/15 13:10:49;;;;;;;16.88;9.50;;;7.10;62.40;;;;;;5013239;28;20414;-59
2022/01/15 13:13:21;;;;;;;15.70;8.75;;;7.20;62.40;;;;;;5017792;28;20457;-58